Time,TemperatureF,DewpointF,PressureIn,WindDirection,WindDirectionDegrees,WindSpeedMPH,WindSpeedGustMPH,Humidity,HourlyPrecipIn,Conditions,Clouds,dailyrainin,SoftwareType,DateUTC
2016-12-10 00:03:00,23.0,16.9,30.47,NW,309,0.0,0.0,77,0.00,,,0.00,meteobridge,2016-12-10 05:03:00,
2016-12-10 00:08:00,22.8,16.7,30.47,NW,309,0.0,0.0,77,0.00,,,0.00,meteobridge,2016-12-10 05:08:00,
2016-12-10 00:13:00,22.6,17.1,30.47,NW,309,0.0,0.0,79,0.00,,,0.00,meteobridge,2016-12-10 05:13:00,
2016-12-10 00:18:00,22.6,17.4,30.47,NW,309,0.0,0.0,80,0.00,,,0.00,meteobridge,2016-12-10 05:18:00,
2016-12-10 00:23:00,22.6,17.1,30.48,NW,309,0.0,0.0,79,0.00,,,0.00,meteobridge,2016-12-10 05:23:00,
2016-12-10 00:28:00,22.3,16.5,30.47,NW,309,0.0,0.0,78,0.00,,,0.00,meteobridge,2016-12-10 05:28:00,
2016-12-10 00:33:00,21.9,16.3,30.47,NW,309,0.0,0.0,79,0.00,,,0.00,meteobridge,2016-12-10 05:33:00,
2016-12-10 00:38:00,21.7,16.5,30.48,NW,309,0.0,0.0,80,0.00,,,0.00,meteobridge,2016-12-10 05:38:00,
2016-12-10 00:43:00,21.7,16.5,30.48,NW,309,0.0,0.0,80,0.00,,,0.00,meteobridge,2016-12-10 05:43:00,
2016-12-10 00:48:00,21.7,17.1,30.48,NW,309,0.0,0.0,82,0.00,,,0.00,meteobridge,2016-12-10 05:48:00,
2016-12-10 00:53:00,21.7,16.9,30.48,NW,309,0.0,0.0,81,0.00,,,0.00,meteobridge,2016-12-10 05:53:00,
2016-12-10 00:58:00,21.6,16.3,30.49,NW,309,0.0,0.0,80,0.00,,,0.00,meteobridge,2016-12-10 05:58:00,
2016-12-10 01:03:00,21.4,15.8,30.50,NW,309,0.0,0.0,79,0.00,,,0.00,meteobridge,2016-12-10 06:03:00,
2016-12-10 01:09:00,21.4,16.2,30.50,NW,309,0.0,0.0,80,0.00,,,0.00,meteobridge,2016-12-10 06:09:00,
2016-12-10 01:14:00,21.2,16.0,30.49,NW,309,0.0,0.0,80,0.00,,,0.00,meteobridge,2016-12-10 06:14:00,
2016-12-10 01:19:00,21.0,15.6,30.49,NW,309,0.0,0.0,79,0.00,,,0.00,meteobridge,2016-12-10 06:19:00,
2016-12-10 01:24:00,21.2,16.3,30.49,NW,309,0.0,0.0,81,0.00,,,0.00,meteobridge,2016-12-10 06:24:00,
2016-12-10 01:29:00,21.4,16.5,30.49,NW,309,0.0,0.0,81,0.00,,,0.00,meteobridge,2016-12-10 06:29:00,
2016-12-10 01:34:00,21.6,16.7,30.49,NW,309,0.0,0.0,81,0.00,,,0.00,meteobridge,2016-12-10 06:34:00,
2016-12-10 01:39:00,21.6,16.9,30.49,NW,309,0.0,0.0,82,0.00,,,0.00,meteobridge,2016-12-10 06:39:00,
2016-12-10 01:44:00,21.6,16.9,30.49,NW,309,0.0,0.0,82,0.00,,,0.00,meteobridge,2016-12-10 06:44:00,
2016-12-10 01:49:00,21.6,17.2,30.49,NW,309,0.0,0.0,83,0.00,,,0.00,meteobridge,2016-12-10 06:49:00,
2016-12-10 01:54:00,21.6,17.2,30.50,NW,309,0.0,0.0,83,0.00,,,0.00,meteobridge,2016-12-10 06:54:00,
2016-12-10 01:59:00,21.6,17.2,30.49,NW,309,0.0,0.0,83,0.00,,,0.00,meteobridge,2016-12-10 06:59:00,
2016-12-10 02:04:00,21.4,16.7,30.50,NW,309,0.0,0.0,82,0.00,,,0.00,meteobridge,2016-12-10 07:04:00,
2016-12-10 02:09:00,21.2,16.5,30.50,NW,309,0.0,0.0,82,0.00,,,0.00,meteobridge,2016-12-10 07:09:00,
2016-12-10 02:14:00,21.2,16.5,30.50,NW,309,0.0,0.0,82,0.00,,,0.00,meteobridge,2016-12-10 07:14:00,
2016-12-10 02:19:00,21.0,16.3,30.50,NW,309,0.0,0.0,82,0.00,,,0.00,meteobridge,2016-12-10 07:19:00,
2016-12-10 02:24:00,21.0,16.3,30.50,NW,309,0.0,0.0,82,0.00,,,0.00,meteobridge,2016-12-10 07:24:00,
2016-12-10 02:29:00,21.0,16.7,30.50,NW,309,0.0,0.0,83,0.00,,,0.00,meteobridge,2016-12-10 07:29:00,
2016-12-10 02:34:00,20.8,16.5,30.50,NW,309,0.0,0.0,83,0.00,,,0.00,meteobridge,2016-12-10 07:34:00,
2016-12-10 02:39:00,20.7,16.0,30.50,NW,309,0.0,0.0,82,0.00,,,0.00,meteobridge,2016-12-10 07:39:00,
2016-12-10 02:44:00,20.5,16.2,30.50,NW,309,0.0,0.0,83,0.00,,,0.00,meteobridge,2016-12-10 07:44:00,
2016-12-10 02:49:00,20.3,16.0,30.50,NW,309,0.0,0.0,83,0.00,,,0.00,meteobridge,2016-12-10 07:49:00,
2016-12-10 02:54:00,20.1,15.4,30.50,NW,309,0.0,0.0,82,0.00,,,0.00,meteobridge,2016-12-10 07:54:00,
2016-12-10 02:59:00,19.9,15.6,30.50,NW,309,0.0,0.0,83,0.00,,,0.00,meteobridge,2016-12-10 07:59:00,
2016-12-10 03:04:00,20.1,16.0,30.50,NW,309,0.0,0.0,84,0.00,,,0.00,meteobridge,2016-12-10 08:04:00,
2016-12-10 03:09:00,20.1,16.0,30.50,NW,309,0.0,0.0,84,0.00,,,0.00,meteobridge,2016-12-10 08:09:00,
2016-12-10 03:14:00,19.9,16.0,30.50,NW,309,0.0,0.0,84,0.00,,,0.00,meteobridge,2016-12-10 08:14:00,
2016-12-10 03:22:00,19.9,15.6,30.50,NW,309,0.0,0.0,83,0.00,,,0.00,meteobridge,2016-12-10 08:22:00,
2016-12-10 03:27:00,19.6,14.9,30.50,NW,309,0.0,0.0,82,0.00,,,0.00,meteobridge,2016-12-10 08:27:00,
2016-12-10 03:32:00,19.6,14.9,30.50,NW,309,0.0,0.0,82,0.00,,,0.00,meteobridge,2016-12-10 08:32:00,
2016-12-10 03:37:00,19.4,14.7,30.50,NW,309,0.0,0.0,82,0.00,,,0.00,meteobridge,2016-12-10 08:37:00,
2016-12-10 03:42:00,19.4,15.1,30.50,NW,309,0.0,0.0,83,0.00,,,0.00,meteobridge,2016-12-10 08:42:00,
2016-12-10 03:47:00,19.6,15.6,30.50,NW,309,0.0,0.0,84,0.00,,,0.00,meteobridge,2016-12-10 08:47:00,
2016-12-10 03:52:00,19.6,15.6,30.50,NW,309,0.0,0.0,84,0.00,,,0.00,meteobridge,2016-12-10 08:52:00,
2016-12-10 03:57:00,19.6,15.3,30.49,NW,309,0.0,0.0,83,0.00,,,0.00,meteobridge,2016-12-10 08:57:00,
2016-12-10 04:02:00,19.4,15.1,30.49,NW,309,0.0,0.0,83,0.00,,,0.00,meteobridge,2016-12-10 09:02:00,
2016-12-10 04:07:00,19.2,14.9,30.50,NW,309,0.0,0.0,83,0.00,,,0.00,meteobridge,2016-12-10 09:07:00,
2016-12-10 04:12:00,19.2,15.3,30.49,NW,309,0.0,0.0,84,0.00,,,0.00,meteobridge,2016-12-10 09:12:00,
2016-12-10 04:27:00,19.0,15.1,30.49,NW,309,0.0,0.0,84,0.00,,,0.00,meteobridge,2016-12-10 09:27:00,
2016-12-10 04:33:00,18.9,14.9,30.50,NW,309,0.0,0.0,84,0.00,,,0.00,meteobridge,2016-12-10 09:33:00,
2016-12-10 04:38:00,18.7,14.7,30.49,NW,309,0.0,0.0,84,0.00,,,0.00,meteobridge,2016-12-10 09:38:00,
2016-12-10 04:43:00,18.7,14.7,30.49,NW,309,0.0,0.0,84,0.00,,,0.00,meteobridge,2016-12-10 09:43:00,
2016-12-10 04:48:00,18.9,15.1,30.49,NW,309,0.0,0.0,85,0.00,,,0.00,meteobridge,2016-12-10 09:48:00,
2016-12-10 04:53:00,18.9,15.1,30.49,NW,309,0.0,0.0,85,0.00,,,0.00,meteobridge,2016-12-10 09:53:00,
2016-12-10 04:58:00,18.7,14.9,30.50,NW,309,0.0,0.0,85,0.00,,,0.00,meteobridge,2016-12-10 09:58:00,
2016-12-10 05:03:00,18.5,14.7,30.50,NW,309,0.0,0.0,85,0.00,,,0.00,meteobridge,2016-12-10 10:03:00,
2016-12-10 05:08:00,18.3,14.5,30.50,NW,309,0.0,0.0,85,0.00,,,0.00,meteobridge,2016-12-10 10:08:00,
2016-12-10 05:13:00,18.1,14.4,30.50,NW,309,0.0,0.0,85,0.00,,,0.00,meteobridge,2016-12-10 10:13:00,
2016-12-10 05:18:00,18.1,14.4,30.51,NW,309,0.0,0.0,85,0.00,,,0.00,meteobridge,2016-12-10 10:18:00,
2016-12-10 05:23:00,18.1,14.4,30.50,NW,309,0.0,0.0,85,0.00,,,0.00,meteobridge,2016-12-10 10:23:00,
2016-12-10 05:28:00,18.1,14.7,30.51,NW,309,0.0,0.0,86,0.00,,,0.00,meteobridge,2016-12-10 10:28:00,
2016-12-10 05:33:00,18.1,14.7,30.51,NW,309,0.0,0.0,86,0.00,,,0.00,meteobridge,2016-12-10 10:33:00,
2016-12-10 05:38:00,18.3,14.9,30.51,NW,309,0.0,0.0,86,0.00,,,0.00,meteobridge,2016-12-10 10:38:00,
2016-12-10 05:43:00,18.3,14.9,30.51,NW,309,0.0,0.0,86,0.00,,,0.00,meteobridge,2016-12-10 10:43:00,
2016-12-10 05:48:00,18.3,14.9,30.51,NW,309,0.0,0.0,86,0.00,,,0.00,meteobridge,2016-12-10 10:48:00,
2016-12-10 05:53:00,18.3,14.9,30.52,NW,309,0.0,0.0,86,0.00,,,0.00,meteobridge,2016-12-10 10:53:00,
2016-12-10 05:58:00,18.5,15.1,30.52,NW,309,0.0,0.0,86,0.00,,,0.00,meteobridge,2016-12-10 10:58:00,
2016-12-10 06:03:00,18.3,14.9,30.52,NW,309,0.0,0.0,86,0.00,,,0.00,meteobridge,2016-12-10 11:03:00,
2016-12-10 06:08:00,18.3,14.9,30.52,NW,309,0.0,0.0,86,0.00,,,0.00,meteobridge,2016-12-10 11:08:00,
2016-12-10 06:13:00,18.3,14.9,30.53,NW,309,0.0,0.0,86,0.00,,,0.00,meteobridge,2016-12-10 11:13:00,
2016-12-10 06:18:00,18.5,15.1,30.53,NW,309,0.0,0.0,86,0.00,,,0.00,meteobridge,2016-12-10 11:18:00,
2016-12-10 06:23:00,18.5,15.1,30.53,NW,309,0.0,0.0,86,0.00,,,0.00,meteobridge,2016-12-10 11:23:00,
2016-12-10 06:28:00,18.5,15.1,30.53,NW,309,0.0,0.0,86,0.00,,,0.00,meteobridge,2016-12-10 11:28:00,
2016-12-10 06:33:00,18.3,14.9,30.53,NW,309,0.0,0.0,86,0.00,,,0.00,meteobridge,2016-12-10 11:33:00,
2016-12-10 06:38:00,18.1,14.7,30.53,NW,309,0.0,0.0,86,0.00,,,0.00,meteobridge,2016-12-10 11:38:00,
2016-12-10 06:43:00,18.1,14.7,30.53,NW,309,0.0,0.0,86,0.00,,,0.00,meteobridge,2016-12-10 11:43:00,
2016-12-10 06:48:00,18.1,14.7,30.53,NW,309,0.0,0.0,86,0.00,,,0.00,meteobridge,2016-12-10 11:48:00,
2016-12-10 06:53:00,18.1,14.7,30.53,NW,309,0.0,0.0,86,0.00,,,0.00,meteobridge,2016-12-10 11:53:00,
2016-12-10 06:58:00,18.1,14.7,30.53,NW,309,0.0,0.0,86,0.00,,,0.00,meteobridge,2016-12-10 11:58:00,
2016-12-10 07:03:00,18.1,14.7,30.53,NW,309,0.0,0.0,86,0.00,,,0.00,meteobridge,2016-12-10 12:03:00,
2016-12-10 07:08:00,18.1,14.7,30.53,NW,309,0.0,0.0,86,0.00,,,0.00,meteobridge,2016-12-10 12:08:00,
2016-12-10 07:13:00,18.1,14.7,30.53,NW,309,0.0,0.0,86,0.00,,,0.00,meteobridge,2016-12-10 12:13:00,
2016-12-10 07:19:00,18.1,14.7,30.53,NW,309,0.0,0.0,86,0.00,,,0.00,meteobridge,2016-12-10 12:19:00,
2016-12-10 07:24:00,18.0,14.5,30.53,NW,309,0.0,0.0,86,0.00,,,0.00,meteobridge,2016-12-10 12:24:00,
2016-12-10 07:28:00,18.0,14.5,30.53,NW,309,0.0,0.0,86,0.00,,,0.00,meteobridge,2016-12-10 12:28:00,
2016-12-10 07:34:00,18.0,14.5,30.53,NW,309,0.0,0.0,86,0.00,,,0.00,meteobridge,2016-12-10 12:34:00,
2016-12-10 07:39:00,18.0,14.5,30.53,NW,309,0.0,0.0,86,0.00,,,0.00,meteobridge,2016-12-10 12:39:00,
2016-12-10 07:44:00,17.8,14.4,30.53,NW,309,0.0,0.0,86,0.00,,,0.00,meteobridge,2016-12-10 12:44:00,
2016-12-10 07:49:00,17.8,14.4,30.54,NW,309,0.0,0.0,86,0.00,,,0.00,meteobridge,2016-12-10 12:49:00,
2016-12-10 07:54:00,17.6,14.2,30.53,NW,309,0.0,0.0,86,0.00,,,0.00,meteobridge,2016-12-10 12:54:00,
2016-12-10 07:59:00,17.8,14.4,30.53,NW,309,0.0,0.0,86,0.00,,,0.00,meteobridge,2016-12-10 12:59:00,
2016-12-10 08:04:00,17.8,14.4,30.53,NW,309,0.0,0.0,86,0.00,,,0.00,meteobridge,2016-12-10 13:04:00,
2016-12-10 08:09:00,18.0,14.7,30.54,NW,309,0.0,0.0,87,0.00,,,0.00,meteobridge,2016-12-10 13:09:00,
2016-12-10 08:14:00,18.1,14.9,30.54,NW,309,0.0,0.0,87,0.00,,,0.00,meteobridge,2016-12-10 13:14:00,
2016-12-10 08:19:00,18.3,15.1,30.54,NW,309,0.0,0.0,87,0.00,,,0.00,meteobridge,2016-12-10 13:19:00,
2016-12-10 08:24:00,18.9,15.4,30.53,NW,309,0.0,0.0,86,0.00,,,0.00,meteobridge,2016-12-10 13:24:00,
2016-12-10 08:29:00,19.2,15.8,30.54,NW,309,0.0,0.0,86,0.00,,,0.00,meteobridge,2016-12-10 13:29:00,
2016-12-10 08:34:00,19.8,16.3,30.54,NW,309,0.0,0.0,86,0.00,,,0.00,meteobridge,2016-12-10 13:34:00,
2016-12-10 08:39:00,20.1,16.3,30.54,NW,309,0.0,0.0,85,0.00,,,0.00,meteobridge,2016-12-10 13:39:00,
2016-12-10 08:49:00,21.7,17.6,30.54,NW,309,0.0,0.0,84,0.00,,,0.00,meteobridge,2016-12-10 13:49:00,
2016-12-10 08:54:00,23.2,18.5,30.55,NW,309,0.0,0.0,82,0.00,,,0.00,meteobridge,2016-12-10 13:54:00,
2016-12-10 08:59:00,24.3,19.0,30.55,NW,309,0.0,0.0,80,0.00,,,0.00,meteobridge,2016-12-10 13:59:00,
2016-12-10 09:04:00,25.3,19.4,30.55,South,169,0.0,1.0,78,0.00,,,0.00,meteobridge,2016-12-10 14:04:00,
2016-12-10 09:09:00,26.2,19.8,30.55,South,169,0.0,1.0,76,0.00,,,0.00,meteobridge,2016-12-10 14:09:00,
2016-12-10 09:14:00,27.1,19.9,30.55,South,180,2.0,2.0,74,0.00,,,0.00,meteobridge,2016-12-10 14:14:00,
2016-12-10 09:19:00,27.3,19.8,30.55,SW,216,0.0,0.0,73,0.00,,,0.00,meteobridge,2016-12-10 14:19:00,
2016-12-10 09:24:00,27.9,19.9,30.55,SW,216,0.0,1.0,72,0.00,,,0.00,meteobridge,2016-12-10 14:24:00,
2016-12-10 09:30:00,28.6,20.7,30.55,SSW,207,0.0,0.0,72,0.00,,,0.00,meteobridge,2016-12-10 14:30:00,
2016-12-10 09:35:00,29.1,20.5,30.55,WNW,293,0.9,1.0,70,0.00,,,0.00,meteobridge,2016-12-10 14:35:00,
2016-12-10 09:40:00,29.7,20.7,30.55,SSE,162,0.0,1.0,69,0.00,,,0.00,meteobridge,2016-12-10 14:40:00,
2016-12-10 09:45:00,30.0,20.7,30.55,SW,217,0.0,2.0,68,0.00,,,0.00,meteobridge,2016-12-10 14:45:00,
2016-12-10 09:50:00,30.6,21.2,30.56,WSW,254,0.0,3.0,68,0.00,,,0.00,meteobridge,2016-12-10 14:50:00,
2016-12-10 09:55:00,30.7,21.0,30.56,WNW,294,0.9,2.0,67,0.00,,,0.00,meteobridge,2016-12-10 14:55:00,
2016-12-10 10:00:00,31.1,21.4,30.56,WNW,294,0.0,1.0,67,0.00,,,0.00,meteobridge,2016-12-10 15:00:00,
2016-12-10 10:05:00,31.8,21.4,30.55,SSW,202,2.0,2.0,65,0.00,,,0.00,meteobridge,2016-12-10 15:05:00,
2016-12-10 10:10:00,32.0,20.8,30.55,South,178,0.0,4.0,63,0.00,,,0.00,meteobridge,2016-12-10 15:10:00,
2016-12-10 10:15:00,32.2,20.7,30.55,South,190,0.9,3.0,62,0.00,,,0.00,meteobridge,2016-12-10 15:15:00,
2016-12-10 10:21:00,32.4,21.2,30.55,SW,217,0.0,3.0,63,0.00,,,0.00,meteobridge,2016-12-10 15:21:00,
2016-12-10 10:26:00,32.7,20.3,30.55,South,182,2.9,4.0,60,0.00,,,0.00,meteobridge,2016-12-10 15:26:00,
2016-12-10 10:31:00,32.9,20.1,30.55,WSW,240,2.0,3.0,59,0.00,,,0.00,meteobridge,2016-12-10 15:31:00,
2016-12-10 10:36:00,33.3,20.8,30.55,NW,316,0.0,3.0,60,0.00,,,0.00,meteobridge,2016-12-10 15:36:00,
2016-12-10 10:41:00,33.8,19.8,30.55,WNW,290,0.0,3.0,56,0.00,,,0.00,meteobridge,2016-12-10 15:41:00,
2016-12-10 10:46:00,34.0,19.6,30.55,ESE,118,0.0,1.0,55,0.00,,,0.00,meteobridge,2016-12-10 15:46:00,
2016-12-10 10:51:00,34.3,20.3,30.54,North,351,0.0,2.0,56,0.00,,,0.00,meteobridge,2016-12-10 15:51:00,
2016-12-10 10:56:00,34.9,19.9,30.54,NW,325,2.0,2.0,54,0.00,,,0.00,meteobridge,2016-12-10 15:56:00,
2016-12-10 11:01:00,34.9,19.0,30.54,SE,140,2.9,3.0,52,0.00,,,0.00,meteobridge,2016-12-10 16:01:00,
2016-12-10 11:06:00,34.7,18.9,30.53,South,184,0.9,4.0,52,0.00,,,0.00,meteobridge,2016-12-10 16:06:00,
2016-12-10 11:11:00,35.1,19.6,30.53,SSW,199,2.9,5.0,53,0.00,,,0.00,meteobridge,2016-12-10 16:11:00,
2016-12-10 11:16:00,34.9,19.0,30.53,SSE,150,0.9,1.0,52,0.00,,,0.00,meteobridge,2016-12-10 16:16:00,
2016-12-10 11:21:00,35.4,19.9,30.53,WNW,295,2.0,4.0,53,0.00,,,0.00,meteobridge,2016-12-10 16:21:00,
2016-12-10 11:26:00,35.6,18.9,30.52,NW,315,0.0,3.0,50,0.00,,,0.00,meteobridge,2016-12-10 16:26:00,
2016-12-10 11:31:00,35.6,19.8,30.52,SSW,192,0.0,2.0,52,0.00,,,0.00,meteobridge,2016-12-10 16:31:00,
2016-12-10 11:37:00,36.1,19.2,30.51,SSW,213,2.0,4.0,50,0.00,,,0.00,meteobridge,2016-12-10 16:37:00,
2016-12-10 11:42:00,36.3,19.4,30.51,WNW,282,0.0,3.0,50,0.00,,,0.00,meteobridge,2016-12-10 16:42:00,
2016-12-10 11:47:00,36.9,19.4,30.50,WNW,292,2.0,3.0,49,0.00,,,0.00,meteobridge,2016-12-10 16:47:00,
2016-12-10 11:52:00,37.0,20.1,30.50,ENE,69,0.0,3.0,50,0.00,,,0.00,meteobridge,2016-12-10 16:52:00,
2016-12-10 11:57:00,37.4,20.5,30.50,SSE,154,0.0,5.0,50,0.00,,,0.00,meteobridge,2016-12-10 16:57:00,
2016-12-10 12:02:00,37.8,20.8,30.50,West,273,0.9,3.0,50,0.00,,,0.00,meteobridge,2016-12-10 17:02:00,
2016-12-10 12:07:00,37.0,19.6,30.50,WSW,248,0.0,3.0,49,0.00,,,0.00,meteobridge,2016-12-10 17:07:00,
2016-12-10 12:12:00,37.0,20.7,30.50,NNW,329,0.0,3.0,51,0.00,,,0.00,meteobridge,2016-12-10 17:12:00,
2016-12-10 12:17:00,37.6,20.7,30.49,NNW,339,0.0,4.0,50,0.00,,,0.00,meteobridge,2016-12-10 17:17:00,
2016-12-10 12:22:00,37.9,19.0,30.50,SSE,163,0.9,4.0,46,0.00,,,0.00,meteobridge,2016-12-10 17:22:00,
2016-12-10 12:27:00,37.9,19.0,30.49,South,172,0.9,3.0,46,0.00,,,0.00,meteobridge,2016-12-10 17:27:00,
2016-12-10 12:32:00,38.1,19.2,30.48,SE,140,0.0,4.0,46,0.00,,,0.00,meteobridge,2016-12-10 17:32:00,
2016-12-10 12:37:00,38.5,19.6,30.48,WSW,258,2.0,4.0,46,0.00,,,0.00,meteobridge,2016-12-10 17:37:00,
2016-12-10 12:42:00,39.0,19.4,30.48,South,173,0.9,4.0,45,0.00,,,0.00,meteobridge,2016-12-10 17:42:00,
2016-12-10 12:47:00,39.0,18.9,30.47,ESE,117,0.9,2.0,44,0.00,,,0.00,meteobridge,2016-12-10 17:47:00,
2016-12-10 12:52:00,39.0,18.9,30.47,SW,216,0.9,1.0,44,0.00,,,0.00,meteobridge,2016-12-10 17:52:00,
2016-12-10 12:57:00,39.4,18.1,30.47,NW,315,0.0,5.0,42,0.00,,,0.00,meteobridge,2016-12-10 17:57:00,
2016-12-10 13:02:00,39.7,19.0,30.47,ESE,116,0.0,2.0,43,0.00,,,0.00,meteobridge,2016-12-10 18:02:00,
2016-12-10 13:07:00,39.7,18.0,30.47,West,263,0.0,4.0,41,0.00,,,0.00,meteobridge,2016-12-10 18:07:00,
2016-12-10 13:12:00,39.6,17.8,30.47,SSE,167,0.0,5.0,41,0.00,,,0.00,meteobridge,2016-12-10 18:12:00,
2016-12-10 13:17:00,39.6,17.8,30.47,NNE,21,2.0,2.0,41,0.00,,,0.00,meteobridge,2016-12-10 18:17:00,
2016-12-10 13:22:00,39.4,17.6,30.47,WNW,302,0.0,2.0,41,0.00,,,0.00,meteobridge,2016-12-10 18:22:00,
2016-12-10 13:27:00,39.7,18.0,30.46,WNW,297,0.0,3.0,41,0.00,,,0.00,meteobridge,2016-12-10 18:27:00,
2016-12-10 13:32:00,39.9,18.1,30.46,NW,309,2.0,2.0,41,0.00,,,0.00,meteobridge,2016-12-10 18:32:00,
2016-12-10 13:37:00,40.5,17.4,30.46,SSW,211,0.9,3.0,39,0.00,,,0.00,meteobridge,2016-12-10 18:37:00,
2016-12-10 13:42:00,40.6,17.1,30.46,NW,321,2.0,8.0,38,0.00,,,0.00,meteobridge,2016-12-10 18:42:00,
2016-12-10 13:47:00,40.6,17.6,30.45,NW,311,0.0,4.0,39,0.00,,,0.00,meteobridge,2016-12-10 18:47:00,
2016-12-10 13:52:00,40.5,16.9,30.45,SSE,167,2.0,5.0,38,0.00,,,0.00,meteobridge,2016-12-10 18:52:00,
2016-12-10 13:57:00,40.6,17.1,30.45,West,263,0.9,5.0,38,0.00,,,0.00,meteobridge,2016-12-10 18:57:00,
2016-12-10 14:02:00,40.6,17.1,30.45,WSW,240,0.0,4.0,38,0.00,,,0.00,meteobridge,2016-12-10 19:02:00,
2016-12-10 14:07:00,40.6,16.3,30.44,WSW,257,0.9,4.0,37,0.00,,,0.00,meteobridge,2016-12-10 19:07:00,
2016-12-10 14:12:00,40.5,16.9,30.44,WSW,243,0.0,4.0,38,0.00,,,0.00,meteobridge,2016-12-10 19:12:00,
2016-12-10 14:18:00,40.6,17.1,30.45,SSE,163,2.0,4.0,38,0.00,,,0.00,meteobridge,2016-12-10 19:18:00,
2016-12-10 14:23:00,40.6,17.1,30.45,SSE,161,0.0,3.0,38,0.00,,,0.00,meteobridge,2016-12-10 19:23:00,
2016-12-10 14:27:00,40.6,17.6,30.45,SW,231,0.9,2.0,39,0.00,,,0.00,meteobridge,2016-12-10 19:27:00,
2016-12-10 14:38:00,40.8,17.2,30.45,NW,307,0.0,2.0,38,0.00,,,0.00,meteobridge,2016-12-10 19:38:00,
2016-12-10 14:43:00,40.6,16.3,30.45,SSW,211,2.0,9.0,37,0.00,,,0.00,meteobridge,2016-12-10 19:43:00,
2016-12-10 14:48:00,40.6,17.1,30.45,West,262,0.9,3.0,38,0.00,,,0.00,meteobridge,2016-12-10 19:48:00,
2016-12-10 14:53:00,40.8,17.2,30.45,SSW,194,0.0,1.0,38,0.00,,,0.00,meteobridge,2016-12-10 19:53:00,
2016-12-10 14:58:00,41.2,17.4,30.46,NW,305,0.9,2.0,38,0.00,,,0.00,meteobridge,2016-12-10 19:58:00,